sensor_id;sensor_type;location;lat;lon;timestamp;pressure;altitude;pressure_sealevel;temperature;humidity
7962;BME280;4026;43.652;24.906;2023-05-19T00:00:04;99251.16;;;12.62;100.00
7962;BME280;4026;43.652;24.906;2023-05-19T00:02:32;99250.78;;;12.78;100.00
7962;BME280;4026;43.652;24.906;2023-05-19T00:05:00;99252.09;;;12.72;100.00
7962;BME280;4026;43.652;24.906;2023-05-19T00:07:29;99260.00;;;12.80;100.00
7962;BME280;4026;43.652;24.906;2023-05-19T00:09:57;99254.88;;;12.80;100.00
7962;BME280;4026;43.652;24.906;2023-05-19T00:12:26;99256.41;;;12.72;100.00
7962;BME280;4026;43.652;24.906;2023-05-19T00:14:53;99256.41;;;12.72;100.00
7962;BME280;4026;43.652;24.906;2023-05-19T00:17:20;99251.53;;;12.68;100.00
7962;BME280;4026;43.652;24.906;2023-05-19T00:19:47;99259.34;;;12.56;100.00
7962;BME280;4026;43.652;24.906;2023-05-19T00:22:14;99253.06;;;12.60;100.00
7962;BME280;4026;43.652;24.906;2023-05-19T00:24:41;99253.06;;;12.60;100.00
7962;BME280;4026;43.652;24.906;2023-05-19T00:27:08;99258.75;;;12.63;100.00
7962;BME280;4026;43.652;24.906;2023-05-19T00:29:36;99272.84;;;12.69;100.00
7962;BME280;4026;43.652;24.906;2023-05-19T00:32:04;99262.72;;;12.56;100.00
7962;BME280;4026;43.652;24.906;2023-05-19T00:34:31;99258.44;;;12.57;100.00
7962;BME280;4026;43.652;24.906;2023-05-19T00:36:58;99267.50;;;12.50;100.00
7962;BME280;4026;43.652;24.906;2023-05-19T00:39:25;99273.13;;;12.55;100.00
7962;BME280;4026;43.652;24.906;2023-05-19T00:41:51;99266.56;;;12.51;100.00
7962;BME280;4026;43.652;24.906;2023-05-19T00:44:18;99271.13;;;12.58;100.00
7962;BME280;4026;43.652;24.906;2023-05-19T00:46:46;99270.53;;;12.55;100.00
7962;BME280;4026;43.652;24.906;2023-05-19T00:49:13;99271.84;;;12.49;100.00
7962;BME280;4026;43.652;24.906;2023-05-19T00:51:40;99267.50;;;12.50;100.00
7962;BME280;4026;43.652;24.906;2023-05-19T00:54:07;99269.38;;;12.48;100.00
7962;BME280;4026;43.652;24.906;2023-05-19T00:56:34;99269.25;;;12.60;100.00
7962;BME280;4026;43.652;24.906;2023-05-19T00:59:01;99269.50;;;12.57;100.00
7962;BME280;4026;43.652;24.906;2023-05-19T01:01:28;99265.41;;;12.55;100.00
7962;BME280;4026;43.652;24.906;2023-05-19T01:03:58;99262.38;;;12.50;100.00
7962;BME280;4026;43.652;24.906;2023-05-19T01:06:25;99266.38;;;12.54;100.00
7962;BME280;4026;43.652;24.906;2023-05-19T01:08:53;99263.75;;;12.65;100.00
7962;BME280;4026;43.652;24.906;2023-05-19T01:11:22;99262.47;;;12.59;100.00
7962;BME280;4026;43.652;24.906;2023-05-19T01:13:49;99260.53;;;12.52;100.00
7962;BME280;4026;43.652;24.906;2023-05-19T01:16:23;99257.72;;;12.43;100.00
7962;BME280;4026;43.652;24.906;2023-05-19T01:18:58;99261.47;;;12.39;100.00
7962;BME280;4026;43.652;24.906;2023-05-19T01:21:58;99252.59;;;12.43;100.00
7962;BME280;4026;43.652;24.906;2023-05-19T01:25:12;99270.09;;;12.27;100.00
7962;BME280;4026;43.652;24.906;2023-05-19T01:30:36;99263.44;;;12.24;100.00
7962;BME280;4026;43.652;24.906;2023-05-19T01:33:05;99268.94;;;12.31;100.00
7962;BME280;4026;43.652;24.906;2023-05-19T01:35:35;99270.31;;;12.35;100.00
7962;BME280;4026;43.652;24.906;2023-05-19T01:38:03;99271.75;;;12.28;100.00
7962;BME280;4026;43.652;24.906;2023-05-19T01:40:31;99268.94;;;12.31;100.00
7962;BME280;4026;43.652;24.906;2023-05-19T01:42:59;99270.31;;;12.35;100.00
7962;BME280;4026;43.652;24.906;2023-05-19T01:45:27;99273.13;;;12.32;100.00
7962;BME280;4026;43.652;24.906;2023-05-19T01:47:58;99274.06;;;12.42;100.00
7962;BME280;4026;43.652;24.906;2023-05-19T01:50:25;99278.72;;;12.26;100.00
7962;BME280;4026;43.652;24.906;2023-05-19T01:52:52;99276.41;;;12.23;100.00
7962;BME280;4026;43.652;24.906;2023-05-19T01:55:20;99277.53;;;12.30;100.00
7962;BME280;4026;43.652;24.906;2023-05-19T01:57:58;99278.72;;;12.37;100.00
7962;BME280;4026;43.652;24.906;2023-05-19T02:00:32;99280.09;;;12.30;100.00
7962;BME280;4026;43.652;24.906;2023-05-19T02:03:09;99281.06;;;12.29;100.00
7962;BME280;4026;43.652;24.906;2023-05-19T02:05:51;99281.06;;;12.29;100.00
7962;BME280;4026;43.652;24.906;2023-05-19T02:08:23;99286.66;;;12.34;100.00
7962;BME280;4026;43.652;24.906;2023-05-19T02:10:57;99286.66;;;12.34;100.00
7962;BME280;4026;43.652;24.906;2023-05-19T02:13:30;99286.19;;;12.29;100.00
7962;BME280;4026;43.652;24.906;2023-05-19T02:16:02;99281.75;;;12.31;100.00
7962;BME280;4026;43.652;24.906;2023-05-19T02:18:31;99286.50;;;12.36;100.00
7962;BME280;4026;43.652;24.906;2023-05-19T02:20:58;99287.00;;;12.30;100.00
7962;BME280;4026;43.652;24.906;2023-05-19T02:23:24;99299.56;;;12.21;100.00
7962;BME280;4026;43.652;24.906;2023-05-19T02:25:51;99302.25;;;12.20;100.00
7962;BME280;4026;43.652;24.906;2023-05-19T02:28:18;99298.50;;;12.13;100.00
7962;BME280;4026;43.652;24.906;2023-05-19T02:30:45;99301.78;;;12.04;100.00
7962;BME280;4026;43.652;24.906;2023-05-19T02:33:12;99296.19;;;12.10;100.00
7962;BME280;4026;43.652;24.906;2023-05-19T02:35:40;99306.44;;;12.10;100.00
7962;BME280;4026;43.652;24.906;2023-05-19T02:38:07;99312.03;;;12.04;100.00
7962;BME280;4026;43.652;24.906;2023-05-19T02:40:34;99308.16;;;11.98;100.00
7962;BME280;4026;43.652;24.906;2023-05-19T02:43:01;99315.97;;;11.96;100.00
7962;BME280;4026;43.652;24.906;2023-05-19T02:45:28;99317.38;;;12.00;100.00
7962;BME280;4026;43.652;24.906;2023-05-19T02:47:54;99324.16;;;12.02;100.00
7962;BME280;4026;43.652;24.906;2023-05-19T02:50:21;99327.41;;;12.04;100.00
7962;BME280;4026;43.652;24.906;2023-05-19T02:52:49;99321.00;;;12.09;100.00
7962;BME280;4026;43.652;24.906;2023-05-19T02:55:18;99328.00;;;12.07;100.00
7962;BME280;4026;43.652;24.906;2023-05-19T02:57:44;99329.28;;;12.02;100.00
7962;BME280;4026;43.652;24.906;2023-05-19T03:00:12;99329.28;;;12.02;100.00
7962;BME280;4026;43.652;24.906;2023-05-19T03:02:39;99326.94;;;11.98;100.00
7962;BME280;4026;43.652;24.906;2023-05-19T03:05:08;99331.16;;;12.11;100.00
7962;BME280;4026;43.652;24.906;2023-05-19T03:07:35;99342.31;;;12.10;100.00
7962;BME280;4026;43.652;24.906;2023-05-19T03:10:05;99337.41;;;12.07;100.00
7962;BME280;4026;43.652;24.906;2023-05-19T03:12:32;99340.78;;;11.96;100.00
7962;BME280;4026;43.652;24.906;2023-05-19T03:14:59;99342.66;;;11.94;100.00
7962;BME280;4026;43.652;24.906;2023-05-19T03:17:26;99354.53;;;11.95;100.00
7962;BME280;4026;43.652;24.906;2023-05-19T03:19:58;99348.00;;;11.91;100.00
7962;BME280;4026;43.652;24.906;2023-05-19T03:22:25;99347.41;;;11.87;100.00
7962;BME280;4026;43.652;24.906;2023-05-19T03:24:52;99345.31;;;11.92;100.00
7962;BME280;4026;43.652;24.906;2023-05-19T03:27:20;99351.84;;;11.96;100.00
7962;BME280;4026;43.652;24.906;2023-05-19T03:29:47;99355.31;;;11.95;100.00
7962;BME280;4026;43.652;24.906;2023-05-19T03:32:14;99354.69;;;12.05;100.00
7962;BME280;4026;43.652;24.906;2023-05-19T03:34:40;99356.75;;;11.99;100.00
7962;BME280;4026;43.652;24.906;2023-05-19T03:37:07;99347.91;;;12.04;100.00
7962;BME280;4026;43.652;24.906;2023-05-19T03:39:35;99358.50;;;11.99;100.00
7962;BME280;4026;43.652;24.906;2023-05-19T03:42:02;99356.53;;;12.03;100.00
7962;BME280;4026;43.652;24.906;2023-05-19T03:44:30;99352.78;;;12.07;100.00
7962;BME280;4026;43.652;24.906;2023-05-19T03:46:57;99359.34;;;12.11;100.00
7962;BME280;4026;43.652;24.906;2023-05-19T03:49:23;99370.28;;;12.13;100.00
7962;BME280;4026;43.652;24.906;2023-05-19T03:51:50;99359.34;;;12.11;100.00
7962;BME280;4026;43.652;24.906;2023-05-19T03:54:17;99367.50;;;12.16;100.00
7962;BME280;4026;43.652;24.906;2023-05-19T03:56:45;99369.94;;;12.17;100.00
7962;BME280;4026;43.652;24.906;2023-05-19T03:59:12;99374.03;;;12.20;100.00
7962;BME280;4026;43.652;24.906;2023-05-19T04:01:40;99370.19;;;12.26;100.00
7962;BME280;4026;43.652;24.906;2023-05-19T04:04:07;99378.59;;;12.28;100.00
7962;BME280;4026;43.652;24.906;2023-05-19T04:06:33;99381.03;;;12.29;100.00
7962;BME280;4026;43.652;24.906;2023-05-19T04:09:01;99383.94;;;12.36;100.00
7962;BME280;4026;43.652;24.906;2023-05-19T04:11:28;99393.41;;;12.35;100.00
7962;BME280;4026;43.652;24.906;2023-05-19T04:13:54;99389.56;;;12.41;100.00
7962;BME280;4026;43.652;24.906;2023-05-19T04:16:21;99389.81;;;12.49;100.00
7962;BME280;4026;43.652;24.906;2023-05-19T04:18:49;99386.19;;;12.52;100.00
7962;BME280;4026;43.652;24.906;2023-05-19T04:21:16;99388.06;;;12.61;100.00
7962;BME280;4026;43.652;24.906;2023-05-19T04:23:43;99388.78;;;12.63;100.00
7962;BME280;4026;43.652;24.906;2023-05-19T04:26:10;99386.06;;;12.64;100.00
7962;BME280;4026;43.652;24.906;2023-05-19T04:28:39;99390.41;;;12.75;100.00
7962;BME280;4026;43.652;24.906;2023-05-19T04:31:06;99390.63;;;12.83;100.00
7962;BME280;4026;43.652;24.906;2023-05-19T04:33:35;99392.94;;;12.98;100.00
7962;BME280;4026;43.652;24.906;2023-05-19T04:36:03;99395.16;;;13.02;100.00
7962;BME280;4026;43.652;24.906;2023-05-19T04:38:33;99403.41;;;13.17;100.00
7962;BME280;4026;43.652;24.906;2023-05-19T04:41:01;99391.97;;;13.21;100.00
7962;BME280;4026;43.652;24.906;2023-05-19T04:43:28;99392.53;;;13.25;100.00
7962;BME280;4026;43.652;24.906;2023-05-19T04:45:56;99398.97;;;13.42;100.00
7962;BME280;4026;43.652;24.906;2023-05-19T04:48:23;99404.06;;;13.53;100.00
7962;BME280;4026;43.652;24.906;2023-05-19T04:50:50;99411.78;;;13.53;100.00
7962;BME280;4026;43.652;24.906;2023-05-19T04:53:18;99406.22;;;13.69;100.00
7962;BME280;4026;43.652;24.906;2023-05-19T04:55:46;99414.25;;;13.75;100.00
7962;BME280;4026;43.652;24.906;2023-05-19T04:58:13;99419.34;;;13.87;100.00
7962;BME280;4026;43.652;24.906;2023-05-19T05:00:41;99424.44;;;13.98;100.00
7962;BME280;4026;43.652;24.906;2023-05-19T05:03:08;99429.28;;;14.12;100.00
7962;BME280;4026;43.652;24.906;2023-05-19T05:05:35;99431.28;;;14.30;100.00
7962;BME280;4026;43.652;24.906;2023-05-19T05:08:01;99434.22;;;14.46;100.00
7962;BME280;4026;43.652;24.906;2023-05-19T05:10:30;99441.81;;;14.68;100.00
7962;BME280;4026;43.652;24.906;2023-05-19T05:12:57;99445.94;;;14.81;100.00
7962;BME280;4026;43.652;24.906;2023-05-19T05:15:25;99461.72;;;14.97;100.00
7962;BME280;4026;43.652;24.906;2023-05-19T05:17:54;99452.53;;;15.04;100.00
7962;BME280;4026;43.652;24.906;2023-05-19T05:20:22;99460.41;;;15.12;100.00
7962;BME280;4026;43.652;24.906;2023-05-19T05:22:50;99465.88;;;15.19;100.00
7962;BME280;4026;43.652;24.906;2023-05-19T05:25:17;99463.41;;;15.17;100.00
7962;BME280;4026;43.652;24.906;2023-05-19T05:27:45;99465.94;;;15.48;100.00
7962;BME280;4026;43.652;24.906;2023-05-19T05:30:13;99474.56;;;15.68;100.00
7962;BME280;4026;43.652;24.906;2023-05-19T05:32:40;99478.75;;;15.79;100.00
7962;BME280;4026;43.652;24.906;2023-05-19T05:35:07;99479.44;;;16.10;100.00
7962;BME280;4026;43.652;24.906;2023-05-19T05:37:34;99474.69;;;15.76;100.00
7962;BME280;4026;43.652;24.906;2023-05-19T05:40:01;99474.81;;;16.14;100.00
7962;BME280;4026;43.652;24.906;2023-05-19T05:42:29;99481.59;;;16.44;100.00
7962;BME280;4026;43.652;24.906;2023-05-19T05:44:57;99494.03;;;16.68;100.00
7962;BME280;4026;43.652;24.906;2023-05-19T05:47:24;99486.81;;;16.71;100.00
7962;BME280;4026;43.652;24.906;2023-05-19T05:49:51;99496.56;;;16.97;100.00
7962;BME280;4026;43.652;24.906;2023-05-19T05:52:20;99498.72;;;17.02;100.00
7962;BME280;4026;43.652;24.906;2023-05-19T05:54:48;99505.91;;;17.35;100.00
7962;BME280;4026;43.652;24.906;2023-05-19T05:57:15;99509.03;;;17.57;100.00
7962;BME280;4026;43.652;24.906;2023-05-19T05:59:42;99508.50;;;17.35;100.00
7962;BME280;4026;43.652;24.906;2023-05-19T06:02:11;99512.47;;;17.75;100.00
7962;BME280;4026;43.652;24.906;2023-05-19T06:04:37;99504.75;;;17.48;100.00
7962;BME280;4026;43.652;24.906;2023-05-19T06:07:05;99500.78;;;17.71;100.00
7962;BME280;4026;43.652;24.906;2023-05-19T06:09:32;99506.84;;;18.07;100.00
7962;BME280;4026;43.652;24.906;2023-05-19T06:11:58;99508.13;;;18.47;100.00
7962;BME280;4026;43.652;24.906;2023-05-19T06:14:25;99508.28;;;18.28;100.00
7962;BME280;4026;43.652;24.906;2023-05-19T06:16:52;99505.38;;;18.49;100.00
7962;BME280;4026;43.652;24.906;2023-05-19T06:19:20;99511.31;;;18.67;100.00
7962;BME280;4026;43.652;24.906;2023-05-19T06:21:49;99513.53;;;18.80;100.00
7962;BME280;4026;43.652;24.906;2023-05-19T06:24:16;99510.66;;;18.65;100.00
7962;BME280;4026;43.652;24.906;2023-05-19T06:26:43;99511.84;;;18.97;100.00
7962;BME280;4026;43.652;24.906;2023-05-19T06:29:10;99504.13;;;19.13;100.00
7962;BME280;4026;43.652;24.906;2023-05-19T06:31:36;99511.44;;;19.18;100.00
7962;BME280;4026;43.652;24.906;2023-05-19T06:34:03;99514.25;;;19.33;100.00
7962;BME280;4026;43.652;24.906;2023-05-19T06:36:31;99516.47;;;19.19;100.00
7962;BME280;4026;43.652;24.906;2023-05-19T06:38:59;99509.00;;;19.16;100.00
7962;BME280;4026;43.652;24.906;2023-05-19T06:41:26;99514.72;;;19.20;100.00
7962;BME280;4026;43.652;24.906;2023-05-19T06:43:53;99510.78;;;18.82;100.00
7962;BME280;4026;43.652;24.906;2023-05-19T06:46:20;99518.66;;;19.32;100.00
7962;BME280;4026;43.652;24.906;2023-05-19T06:48:46;99514.91;;;19.27;100.00
7962;BME280;4026;43.652;24.906;2023-05-19T06:51:13;99522.00;;;19.25;100.00
7962;BME280;4026;43.652;24.906;2023-05-19T06:53:47;99516.25;;;19.47;100.00
7962;BME280;4026;43.652;24.906;2023-05-19T06:56:14;99527.03;;;19.68;100.00
7962;BME280;4026;43.652;24.906;2023-05-19T06:58:41;99531.31;;;20.19;100.00
7962;BME280;4026;43.652;24.906;2023-05-19T07:01:08;99531.00;;;20.71;98.61
7962;BME280;4026;43.652;24.906;2023-05-19T07:03:34;99531.19;;;20.61;97.20
7962;BME280;4026;43.652;24.906;2023-05-19T07:06:01;99532.53;;;21.05;98.45
7962;BME280;4026;43.652;24.906;2023-05-19T07:08:28;99527.88;;;21.31;95.32
7962;BME280;4026;43.652;24.906;2023-05-19T07:10:56;99525.31;;;21.23;96.96
7962;BME280;4026;43.652;24.906;2023-05-19T07:13:23;99525.84;;;21.58;89.06
7962;BME280;4026;43.652;24.906;2023-05-19T07:15:50;99522.84;;;21.38;93.22
7962;BME280;4026;43.652;24.906;2023-05-19T07:18:20;99531.63;;;21.37;90.91
7962;BME280;4026;43.652;24.906;2023-05-19T07:20:46;99528.72;;;21.94;89.85
7962;BME280;4026;43.652;24.906;2023-05-19T07:23:13;99527.56;;;21.97;86.89
7962;BME280;4026;43.652;24.906;2023-05-19T07:25:40;99533.59;;;21.97;86.80
7962;BME280;4026;43.652;24.906;2023-05-19T07:28:08;99530.56;;;22.08;85.51
7962;BME280;4026;43.652;24.906;2023-05-19T07:30:35;99535.19;;;22.44;81.83
7962;BME280;4026;43.652;24.906;2023-05-19T07:33:03;99531.47;;;22.15;83.90
7962;BME280;4026;43.652;24.906;2023-05-19T07:35:31;99528.81;;;22.47;85.42
7962;BME280;4026;43.652;24.906;2023-05-19T07:37:57;99532.31;;;22.54;85.92
7962;BME280;4026;43.652;24.906;2023-05-19T07:40:24;99531.94;;;22.95;85.22
7962;BME280;4026;43.652;24.906;2023-05-19T07:42:51;99529.38;;;23.46;82.88
7962;BME280;4026;43.652;24.906;2023-05-19T07:45:19;99537.84;;;22.13;81.18
7962;BME280;4026;43.652;24.906;2023-05-19T07:47:46;99528.06;;;22.23;86.12
7962;BME280;4026;43.652;24.906;2023-05-19T07:50:13;99532.06;;;22.49;85.17
7962;BME280;4026;43.652;24.906;2023-05-19T07:52:40;99532.56;;;23.12;81.24
7962;BME280;4026;43.652;24.906;2023-05-19T07:55:07;99536.44;;;23.31;80.74
7962;BME280;4026;43.652;24.906;2023-05-19T07:57:34;99545.78;;;23.40;82.69
7962;BME280;4026;43.652;24.906;2023-05-19T08:00:01;99539.53;;;23.92;82.65
7962;BME280;4026;43.652;24.906;2023-05-19T08:02:33;99549.47;;;24.25;75.65
7962;BME280;4026;43.652;24.906;2023-05-19T08:05:00;99540.75;;;24.39;74.34
7962;BME280;4026;43.652;24.906;2023-05-19T08:07:26;99545.75;;;24.55;74.12
7962;BME280;4026;43.652;24.906;2023-05-19T08:09:53;99538.41;;;24.44;75.44
7962;BME280;4026;43.652;24.906;2023-05-19T08:12:20;99540.19;;;23.79;80.78
7962;BME280;4026;43.652;24.906;2023-05-19T08:14:47;99544.41;;;23.95;77.32
7962;BME280;4026;43.652;24.906;2023-05-19T08:17:13;99542.75;;;24.37;78.29
7962;BME280;4026;43.652;24.906;2023-05-19T08:19:41;99548.72;;;24.31;76.07
7962;BME280;4026;43.652;24.906;2023-05-19T08:22:08;99542.75;;;24.37;81.12
7962;BME280;4026;43.652;24.906;2023-05-19T08:24:35;99546.78;;;24.39;78.98
7962;BME280;4026;43.652;24.906;2023-05-19T08:27:03;99547.94;;;24.87;77.42
7962;BME280;4026;43.652;24.906;2023-05-19T08:29:31;99540.06;;;25.15;74.89
7962;BME280;4026;43.652;24.906;2023-05-19T08:31:57;99550.88;;;25.05;68.58
7962;BME280;4026;43.652;24.906;2023-05-19T08:34:24;99553.66;;;24.69;69.33
7962;BME280;4026;43.652;24.906;2023-05-19T08:36:52;99542.94;;;24.57;74.21
7962;BME280;4026;43.652;24.906;2023-05-19T08:39:22;99546.56;;;24.13;74.53
7962;BME280;4026;43.652;24.906;2023-05-19T08:41:51;99555.88;;;24.22;76.25
7962;BME280;4026;43.652;24.906;2023-05-19T08:44:18;99559.59;;;24.84;70.89
7962;BME280;4026;43.652;24.906;2023-05-19T08:46:46;99545.94;;;25.17;78.17
7962;BME280;4026;43.652;24.906;2023-05-19T08:49:13;99544.69;;;25.74;68.67
7962;BME280;4026;43.652;24.906;2023-05-19T08:51:45;99550.25;;;26.32;66.77
7962;BME280;4026;43.652;24.906;2023-05-19T08:54:17;99544.69;;;25.54;72.52
7962;BME280;4026;43.652;24.906;2023-05-19T08:56:45;99542.25;;;25.52;76.86
7962;BME280;4026;43.652;24.906;2023-05-19T08:59:13;99545.47;;;25.55;63.04
7962;BME280;4026;43.652;24.906;2023-05-19T09:01:41;99539.97;;;26.11;66.98
7962;BME280;4026;43.652;24.906;2023-05-19T09:04:09;99538.53;;;25.88;68.30
7962;BME280;4026;43.652;24.906;2023-05-19T09:06:36;99530.06;;;25.25;70.62
7962;BME280;4026;43.652;24.906;2023-05-19T09:09:05;99529.84;;;25.88;74.43
7962;BME280;4026;43.652;24.906;2023-05-19T09:11:34;99530.69;;;26.08;69.32
7962;BME280;4026;43.652;24.906;2023-05-19T09:14:02;99535.81;;;25.55;67.87
7962;BME280;4026;43.652;24.906;2023-05-19T09:16:28;99527.09;;;25.00;67.26
7962;BME280;4026;43.652;24.906;2023-05-19T09:18:57;99533.66;;;25.17;66.20
7962;BME280;4026;43.652;24.906;2023-05-19T09:21:28;99535.38;;;24.69;71.74
7962;BME280;4026;43.652;24.906;2023-05-19T09:24:03;99524.94;;;25.65;76.92
7962;BME280;4026;43.652;24.906;2023-05-19T09:26:37;99527.00;;;25.76;67.58
7962;BME280;4026;43.652;24.906;2023-05-19T09:29:11;99522.81;;;25.27;63.40
7962;BME280;4026;43.652;24.906;2023-05-19T09:31:38;99529.09;;;24.98;70.07
7962;BME280;4026;43.652;24.906;2023-05-19T09:34:11;99533.75;;;24.68;69.15
7962;BME280;4026;43.652;24.906;2023-05-19T09:36:39;99523.09;;;25.04;66.01
7962;BME280;4026;43.652;24.906;2023-05-19T09:39:12;99525.19;;;25.22;72.92
7962;BME280;4026;43.652;24.906;2023-05-19T09:41:40;99529.50;;;26.24;63.86
7962;BME280;4026;43.652;24.906;2023-05-19T09:44:11;99529.09;;;26.54;65.65
7962;BME280;4026;43.652;24.906;2023-05-19T09:46:46;99534.28;;;25.87;71.08
7962;BME280;4026;43.652;24.906;2023-05-19T09:49:18;99530.56;;;25.48;74.40
7962;BME280;4026;43.652;24.906;2023-05-19T09:51:48;99528.75;;;25.56;70.92
7962;BME280;4026;43.652;24.906;2023-05-19T09:54:15;99532.50;;;26.08;62.83
7962;BME280;4026;43.652;24.906;2023-05-19T09:56:43;99528.69;;;26.04;70.06
7962;BME280;4026;43.652;24.906;2023-05-19T09:59:10;99528.50;;;26.38;60.69
7962;BME280;4026;43.652;24.906;2023-05-19T10:01:41;99531.13;;;26.52;61.53
7962;BME280;4026;43.652;24.906;2023-05-19T10:04:11;99528.06;;;26.02;65.72
7962;BME280;4026;43.652;24.906;2023-05-19T10:06:39;99522.81;;;26.68;70.95
7962;BME280;4026;43.652;24.906;2023-05-19T10:09:06;99526.66;;;26.66;61.52
7962;BME280;4026;43.652;24.906;2023-05-19T10:11:33;99522.84;;;26.55;59.48
7962;BME280;4026;43.652;24.906;2023-05-19T10:14:03;99524.13;;;25.58;61.27
7962;BME280;4026;43.652;24.906;2023-05-19T10:16:30;99522.84;;;26.22;55.33
7962;BME280;4026;43.652;24.906;2023-05-19T10:18:58;99516.78;;;26.28;59.07
7962;BME280;4026;43.652;24.906;2023-05-19T10:21:26;99519.81;;;26.58;51.74
7962;BME280;4026;43.652;24.906;2023-05-19T10:23:53;99510.91;;;26.46;58.07
7962;BME280;4026;43.652;24.906;2023-05-19T10:26:20;99514.75;;;26.63;56.62
7962;BME280;4026;43.652;24.906;2023-05-19T10:28:49;99509.47;;;26.83;54.72
7962;BME280;4026;43.652;24.906;2023-05-19T10:31:20;99507.69;;;26.24;53.22
7962;BME280;4026;43.652;24.906;2023-05-19T10:34:07;99506.09;;;26.16;52.16
7962;BME280;4026;43.652;24.906;2023-05-19T10:36:43;99507.09;;;26.28;57.33
7962;BME280;4026;43.652;24.906;2023-05-19T10:39:16;99508.09;;;26.40;57.93
7962;BME280;4026;43.652;24.906;2023-05-19T10:41:55;99501.84;;;26.55;54.22
7962;BME280;4026;43.652;24.906;2023-05-19T10:44:33;99510.69;;;26.80;57.73
7962;BME280;4026;43.652;24.906;2023-05-19T10:47:06;99511.31;;;26.69;53.31
7962;BME280;4026;43.652;24.906;2023-05-19T10:49:36;99514.56;;;26.51;53.28
7962;BME280;4026;43.652;24.906;2023-05-19T10:52:18;99504.88;;;26.38;53.88
7962;BME280;4026;43.652;24.906;2023-05-19T10:54:45;99507.66;;;26.70;62.10
7962;BME280;4026;43.652;24.906;2023-05-19T10:57:13;99507.66;;;26.77;58.46
7962;BME280;4026;43.652;24.906;2023-05-19T10:59:41;99503.28;;;26.31;51.40
7962;BME280;4026;43.652;24.906;2023-05-19T11:02:37;99510.13;;;26.25;59.15
7962;BME280;4026;43.652;24.906;2023-05-19T11:05:08;99511.75;;;26.13;53.85
7962;BME280;4026;43.652;24.906;2023-05-19T11:07:40;99508.53;;;26.24;61.40
7962;BME280;4026;43.652;24.906;2023-05-19T11:10:08;99501.66;;;26.56;62.03
7962;BME280;4026;43.652;24.906;2023-05-19T11:12:42;99504.47;;;26.55;66.28
7962;BME280;4026;43.652;24.906;2023-05-19T11:15:14;99489.53;;;26.49;56.35
7962;BME280;4026;43.652;24.906;2023-05-19T11:17:44;99485.75;;;26.18;57.70
7962;BME280;4026;43.652;24.906;2023-05-19T11:20:20;99486.72;;;26.24;59.09
7962;BME280;4026;43.652;24.906;2023-05-19T11:23:02;99483.28;;;26.50;59.13
7962;BME280;4026;43.652;24.906;2023-05-19T11:25:40;99485.50;;;26.53;55.93
7962;BME280;4026;43.652;24.906;2023-05-19T11:28:07;99493.22;;;26.21;54.71
7962;BME280;4026;43.652;24.906;2023-05-19T11:30:36;99483.31;;;26.30;57.21
7962;BME280;4026;43.652;24.906;2023-05-19T11:33:05;99480.28;;;26.39;62.94
7962;BME280;4026;43.652;24.906;2023-05-19T11:35:32;99477.00;;;26.77;55.67
7962;BME280;4026;43.652;24.906;2023-05-19T11:37:59;99479.88;;;27.14;54.19
7962;BME280;4026;43.652;24.906;2023-05-19T11:40:27;99484.28;;;26.49;57.44
7962;BME280;4026;43.652;24.906;2023-05-19T11:42:54;99482.69;;;26.48;59.61
7962;BME280;4026;43.652;24.906;2023-05-19T11:45:23;99481.88;;;26.40;59.06
7962;BME280;4026;43.652;24.906;2023-05-19T11:47:51;99475.22;;;26.58;55.22
7962;BME280;4026;43.652;24.906;2023-05-19T11:50:19;99470.97;;;26.63;56.72
7962;BME280;4026;43.652;24.906;2023-05-19T11:52:46;99470.97;;;26.43;54.50
7962;BME280;4026;43.652;24.906;2023-05-19T11:55:14;99469.81;;;26.33;54.16
7962;BME280;4026;43.652;24.906;2023-05-19T11:57:42;99469.38;;;26.42;54.16
7962;BME280;4026;43.652;24.906;2023-05-19T12:00:16;99468.19;;;26.25;59.40
7962;BME280;4026;43.652;24.906;2023-05-19T12:02:43;99467.78;;;26.28;58.85
7962;BME280;4026;43.652;24.906;2023-05-19T12:05:18;99453.88;;;25.13;57.05
7962;BME280;4026;43.652;24.906;2023-05-19T12:07:45;99453.53;;;24.75;64.15
7962;BME280;4026;43.652;24.906;2023-05-19T12:10:14;99455.06;;;25.04;65.75
7962;BME280;4026;43.652;24.906;2023-05-19T12:12:41;99458.06;;;25.56;62.53
7962;BME280;4026;43.652;24.906;2023-05-19T12:15:10;99467.13;;;25.60;59.64
7962;BME280;4026;43.652;24.906;2023-05-19T12:17:37;99473.09;;;25.27;63.22
7962;BME280;4026;43.652;24.906;2023-05-19T12:20:05;99470.19;;;25.08;61.46
7962;BME280;4026;43.652;24.906;2023-05-19T12:22:33;99481.13;;;24.84;60.30
7962;BME280;4026;43.652;24.906;2023-05-19T12:25:01;99499.44;;;23.63;68.17
7962;BME280;4026;43.652;24.906;2023-05-19T12:27:29;99500.66;;;22.95;60.29
7962;BME280;4026;43.652;24.906;2023-05-19T12:29:56;99496.31;;;21.74;66.74
7962;BME280;4026;43.652;24.906;2023-05-19T12:32:23;99452.59;;;20.51;70.77
7962;BME280;4026;43.652;24.906;2023-05-19T12:34:50;99452.97;;;19.82;78.98
7962;BME280;4026;43.652;24.906;2023-05-19T12:37:17;99452.06;;;19.57;82.11
7962;BME280;4026;43.652;24.906;2023-05-19T12:39:47;99446.25;;;19.55;83.19
7962;BME280;4026;43.652;24.906;2023-05-19T12:42:15;99434.63;;;19.67;85.40
7962;BME280;4026;43.652;24.906;2023-05-19T12:44:43;99420.19;;;19.89;75.80
7962;BME280;4026;43.652;24.906;2023-05-19T12:47:12;99406.00;;;20.57;74.99
7962;BME280;4026;43.652;24.906;2023-05-19T12:49:52;99399.28;;;21.11;62.66
7962;BME280;4026;43.652;24.906;2023-05-19T12:52:20;99396.41;;;21.29;60.84
7962;BME280;4026;43.652;24.906;2023-05-19T12:54:50;99402.97;;;21.47;66.95
7962;BME280;4026;43.652;24.906;2023-05-19T12:57:24;99396.56;;;21.96;66.98
7962;BME280;4026;43.652;24.906;2023-05-19T12:59:51;99396.94;;;22.46;64.82
7962;BME280;4026;43.652;24.906;2023-05-19T13:02:18;99402.84;;;22.69;59.84
7962;BME280;4026;43.652;24.906;2023-05-19T13:04:45;99405.00;;;22.51;60.72
7962;BME280;4026;43.652;24.906;2023-05-19T13:07:12;99401.13;;;22.76;58.91
7962;BME280;4026;43.652;24.906;2023-05-19T13:09:39;99398.84;;;22.88;56.64
7962;BME280;4026;43.652;24.906;2023-05-19T13:12:08;99399.75;;;23.53;55.66
7962;BME280;4026;43.652;24.906;2023-05-19T13:14:34;99400.75;;;23.73;51.39